createdAt,value
2022-11-14T00:01:08.069Z,12.93
2022-11-14T00:03:35.170Z,13.11
2022-11-14T00:06:05.475Z,12.78
2022-11-14T00:08:32.684Z,12.47
2022-11-14T00:10:59.886Z,12.19
2022-11-14T00:13:26.947Z,10.67
2022-11-14T00:15:54.146Z,10.37
2022-11-14T00:18:21.952Z,10.73
2022-11-14T00:20:49.156Z,10.57
2022-11-14T00:23:18.387Z,11.04
2022-11-14T00:25:46.488Z,11.48
2022-11-14T00:28:13.585Z,12.09
2022-11-14T00:30:40.785Z,12.42
2022-11-14T00:33:07.806Z,11.25
2022-11-14T00:35:34.847Z,11.08
2022-11-14T00:38:01.926Z,11.07
2022-11-14T00:40:30.429Z,11.16
2022-11-14T00:42:57.465Z,11.27
2022-11-14T00:45:24.546Z,10.79
2022-11-14T00:47:51.645Z,11.20
2022-11-14T00:50:18.784Z,11.06
2022-11-14T00:52:45.865Z,10.99
2022-11-14T00:55:12.984Z,11.10
2022-11-14T00:57:41.465Z,12.47
2022-11-14T01:00:10.266Z,12.20
2022-11-14T01:02:37.305Z,12.07
2022-11-14T01:05:05.441Z,12.26
2022-11-14T01:07:32.506Z,11.96
2022-11-14T01:09:59.586Z,11.70
2022-11-14T01:12:26.705Z,12.12
2022-11-14T01:14:55.287Z,12.44
2022-11-14T01:17:22.417Z,13.80
2022-11-14T01:19:49.505Z,13.42
2022-11-14T01:22:16.566Z,12.78
2022-11-14T01:24:43.629Z,12.70
2022-11-14T01:27:10.645Z,13.07
2022-11-14T01:29:37.724Z,12.54
2022-11-14T01:32:07.525Z,11.76
2022-11-14T01:34:34.665Z,12.55
2022-11-14T01:37:01.746Z,14.40
2022-11-14T01:39:28.871Z,13.91
2022-11-14T01:41:55.954Z,14.37
2022-11-14T01:44:41.310Z,13.07
2022-11-14T01:47:11.845Z,12.42
2022-11-14T01:49:46.007Z,12.12
2022-11-14T01:52:17.705Z,12.84
2022-11-14T01:54:49.385Z,12.70
2022-11-14T01:57:21.726Z,12.57
2022-11-14T01:59:53.826Z,12.79
2022-11-14T02:02:24.947Z,12.18
2022-11-14T02:04:57.145Z,11.87
2022-11-14T02:07:27.849Z,12.48
2022-11-14T02:09:55.886Z,12.45
2022-11-14T02:12:24.266Z,12.53
2022-11-14T02:14:55.586Z,12.56
2022-11-14T02:17:30.673Z,12.15
2022-11-14T02:20:16.957Z,11.93
2022-11-14T02:22:44.026Z,12.02
2022-11-14T02:25:16.805Z,11.58
2022-11-14T02:27:44.158Z,11.12
2022-11-14T02:30:15.045Z,11.45
2022-11-14T02:33:10.670Z,11.25
2022-11-14T02:35:30.614Z,11.23
2022-11-14T02:37:57.730Z,11.64
2022-11-14T02:40:24.819Z,11.46
2022-11-14T02:42:52.008Z,11.65
2022-11-14T02:45:19.109Z,11.82
2022-11-14T02:47:46.192Z,11.59
2022-11-14T02:50:13.380Z,11.66
2022-11-14T02:52:41.914Z,11.72
2022-11-14T02:55:10.111Z,11.87
2022-11-14T02:57:37.075Z,11.56
2022-11-14T03:00:07.624Z,11.56
2022-11-14T03:02:37.111Z,11.46
2022-11-14T03:05:04.670Z,11.65
2022-11-14T03:07:32.823Z,10.97
2022-11-14T03:10:01.391Z,11.03
2022-11-14T03:12:28.534Z,10.94
2022-11-14T03:14:55.571Z,10.88
2022-11-14T03:17:22.650Z,10.65
2022-11-14T03:19:49.730Z,10.55
2022-11-14T03:22:17.051Z,10.33
2022-11-14T03:24:44.069Z,9.90
2022-11-14T03:27:12.592Z,10.62
2022-11-14T03:29:39.690Z,10.06
2022-11-14T03:32:06.751Z,9.87
2022-11-14T03:34:33.890Z,9.81
2022-11-14T03:37:01.170Z,9.68
2022-11-14T03:39:28.449Z,9.81
2022-11-14T03:41:55.490Z,10.02
2022-11-14T03:44:24.031Z,10.38
2022-11-14T03:46:52.562Z,11.44
2022-11-14T03:49:19.571Z,9.27
2022-11-14T03:51:46.714Z,8.53
2022-11-14T03:54:13.838Z,9.37
2022-11-14T03:56:40.878Z,8.56
2022-11-14T03:59:07.899Z,8.45
2022-11-14T04:01:36.411Z,7.73
2022-11-14T04:04:03.494Z,5.06
2022-11-14T04:06:30.508Z,4.67
2022-11-14T04:08:57.552Z,4.63
2022-11-14T04:11:24.608Z,4.37
2022-11-14T04:13:51.618Z,4.29
2022-11-14T04:16:18.679Z,4.45
2022-11-14T04:18:47.117Z,4.13
2022-11-14T04:21:14.299Z,4.11
2022-11-14T04:23:41.358Z,4.00
2022-11-14T04:26:08.339Z,3.82
2022-11-14T04:28:35.517Z,4.16
2022-11-14T04:31:02.817Z,4.22
2022-11-14T04:33:29.827Z,4.05
2022-11-14T04:35:58.405Z,4.06
2022-11-14T04:38:25.425Z,3.95
2022-11-14T04:40:53.288Z,4.27
2022-11-14T04:43:21.628Z,4.36
2022-11-14T04:45:48.716Z,4.16
2022-11-14T04:48:15.751Z,4.29
2022-11-14T04:50:42.810Z,4.18
2022-11-14T04:53:11.331Z,4.05
2022-11-14T04:55:38.391Z,4.08
2022-11-14T04:58:05.471Z,4.08
2022-11-14T05:00:32.511Z,4.00
2022-11-14T05:02:59.911Z,4.22
2022-11-14T05:05:27.032Z,4.05
2022-11-14T05:07:54.792Z,4.22
2022-11-14T05:10:23.316Z,4.03
2022-11-14T05:12:53.978Z,4.08
2022-11-14T05:15:21.512Z,4.34
2022-11-14T05:17:48.604Z,4.20
2022-11-14T05:20:15.724Z,4.26
2022-11-14T05:22:42.929Z,4.09
2022-11-14T05:25:10.830Z,3.89
2022-11-14T05:27:39.331Z,3.86
2022-11-14T05:30:07.732Z,3.51
2022-11-14T05:32:34.832Z,3.67
2022-11-14T05:35:01.905Z,3.71
2022-11-14T05:37:28.932Z,3.05
2022-11-14T05:39:55.979Z,3.15
2022-11-14T05:42:23.138Z,3.15
2022-11-14T05:44:51.709Z,3.25
2022-11-14T05:47:18.800Z,2.91
2022-11-14T05:49:45.904Z,3.09
2022-11-14T05:52:13.286Z,3.24
2022-11-14T05:54:40.326Z,3.07
2022-11-14T05:57:07.425Z,2.97
2022-11-14T05:59:34.505Z,2.66
2022-11-14T06:02:03.120Z,2.71
2022-11-14T06:04:30.204Z,2.66
2022-11-14T06:06:57.345Z,2.41
2022-11-14T06:09:24.487Z,2.50
2022-11-14T06:11:51.602Z,2.30
2022-11-14T06:14:18.629Z,2.56
2022-11-14T06:16:45.730Z,2.02
2022-11-14T06:19:14.150Z,2.34
2022-11-14T06:21:41.231Z,2.06
2022-11-14T06:24:08.486Z,2.03
2022-11-14T06:26:35.486Z,1.92
2022-11-14T06:29:02.530Z,1.99
2022-11-14T06:31:29.584Z,2.04
2022-11-14T06:33:56.627Z,1.96
2022-11-14T06:36:25.150Z,1.99
2022-11-14T06:38:52.203Z,1.91
2022-11-14T06:41:21.383Z,1.73
2022-11-14T06:43:50.403Z,1.97
2022-11-14T06:46:21.001Z,1.86
2022-11-14T06:48:50.126Z,1.74
2022-11-14T06:51:18.316Z,1.98
2022-11-14T06:53:46.822Z,2.04
2022-11-14T06:56:16.320Z,1.91
2022-11-14T06:58:46.870Z,2.06
2022-11-14T07:01:16.270Z,2.03
2022-11-14T07:03:44.467Z,1.98
2022-11-14T07:06:13.954Z,2.08
2022-11-14T07:08:42.703Z,2.05
2022-11-14T07:11:13.664Z,2.20
2022-11-14T07:13:40.702Z,2.09
2022-11-14T07:16:08.342Z,2.21
2022-11-14T07:18:35.403Z,2.38
2022-11-14T07:21:05.241Z,2.11
2022-11-14T07:23:34.461Z,2.03
2022-11-14T07:26:03.022Z,2.01
2022-11-14T07:28:31.861Z,2.00
2022-11-14T07:30:59.187Z,1.77
2022-11-14T07:33:26.265Z,1.98
2022-11-14T07:35:53.285Z,1.88
2022-11-14T07:38:20.304Z,1.81
2022-11-14T07:40:59.043Z,1.96
2022-11-14T07:43:26.964Z,1.61
2022-11-14T07:45:59.264Z,1.98
2022-11-14T07:48:26.374Z,1.82
2022-11-14T07:50:53.463Z,1.93
2022-11-14T07:53:20.524Z,1.96
2022-11-14T07:55:47.704Z,2.72
2022-11-14T07:58:14.751Z,2.30
2022-11-14T08:00:41.903Z,1.76
2022-11-14T08:03:10.961Z,1.86
2022-11-14T08:05:37.994Z,2.06
2022-11-14T08:08:05.422Z,2.33
2022-11-14T08:10:33.890Z,1.92
2022-11-14T08:13:31.814Z,2.03
2022-11-14T08:15:50.484Z,2.22
2022-11-14T08:18:19.114Z,1.85
2022-11-14T08:20:46.596Z,2.06
2022-11-14T08:23:14.894Z,2.01
2022-11-14T08:25:42.500Z,2.07
2022-11-14T08:28:10.058Z,1.87
2022-11-14T08:30:37.151Z,2.02
2022-11-14T08:33:06.324Z,1.79
2022-11-14T08:35:34.904Z,1.98
2022-11-14T08:38:02.166Z,1.94
2022-11-14T08:40:29.705Z,1.97
2022-11-14T08:43:00.454Z,1.90
2022-11-14T08:45:27.524Z,1.97
2022-11-14T08:47:54.642Z,1.99
2022-11-14T08:50:21.984Z,2.09
2022-11-14T08:52:53.531Z,2.39
2022-11-14T08:55:21.333Z,2.00
2022-11-14T08:57:49.946Z,1.75
2022-11-14T09:00:17.906Z,1.97
2022-11-14T09:02:45.057Z,1.89
2022-11-14T09:05:12.192Z,1.80
2022-11-14T09:07:39.640Z,2.20
2022-11-14T09:10:09.598Z,1.96
2022-11-14T09:12:36.718Z,2.04
2022-11-14T09:15:04.104Z,1.73
2022-11-14T09:17:31.238Z,1.76
2022-11-14T09:19:58.303Z,2.43
2022-11-14T09:22:25.482Z,2.27
2022-11-14T09:24:52.587Z,1.76
2022-11-14T09:27:21.105Z,1.89
2022-11-14T09:29:48.175Z,2.30
2022-11-14T09:32:15.229Z,2.16
2022-11-14T09:34:42.228Z,2.22
2022-11-14T09:37:09.450Z,1.97
2022-11-14T09:39:36.529Z,1.78
2022-11-14T09:42:23.169Z,1.89
2022-11-14T09:44:57.780Z,1.78
2022-11-14T09:47:30.869Z,1.75
2022-11-14T09:50:06.791Z,1.59
2022-11-14T09:52:38.209Z,1.76
2022-11-14T09:55:12.770Z,1.84
2022-11-14T09:57:42.566Z,1.61
2022-11-14T10:00:16.699Z,1.70
2022-11-14T10:03:03.837Z,1.74
2022-11-14T10:06:02.535Z,1.78
2022-11-14T10:08:51.341Z,1.92
2022-11-14T10:11:29.163Z,2.00
2022-11-14T10:14:18.578Z,2.04
2022-11-14T10:16:58.680Z,1.96
2022-11-14T10:19:42.535Z,1.97
2022-11-14T10:22:25.564Z,1.91
2022-11-14T10:25:14.722Z,2.06
2022-11-14T10:27:57.458Z,1.92
2022-11-14T10:30:39.343Z,2.03
2022-11-14T10:33:24.221Z,2.14
2022-11-14T10:36:01.580Z,1.91
2022-11-14T10:38:38.001Z,1.93
2022-11-14T10:41:11.291Z,2.06
2022-11-14T10:43:49.926Z,1.98
2022-11-14T10:46:25.204Z,1.87
2022-11-14T10:48:59.933Z,1.75
2022-11-14T10:51:36.823Z,1.64
2022-11-14T10:54:14.707Z,1.82
2022-11-14T10:56:52.884Z,1.39
2022-11-14T10:59:21.524Z,1.51
2022-11-14T11:01:55.523Z,1.66
2022-11-14T11:04:27.993Z,1.50
2022-11-14T11:06:57.231Z,1.39
2022-11-14T11:09:26.947Z,1.48
2022-11-14T11:11:58.022Z,1.44
2022-11-14T11:14:26.143Z,1.63
2022-11-14T11:17:16.722Z,1.52
2022-11-14T11:19:45.663Z,1.59
2022-11-14T11:22:29.963Z,1.88
2022-11-14T11:24:57.382Z,1.63
2022-11-14T11:27:26.746Z,1.49
2022-11-14T11:30:17.353Z,1.55
2022-11-14T11:32:45.102Z,1.34
2022-11-14T11:35:16.307Z,1.18
2022-11-14T11:37:46.547Z,1.12
2022-11-14T11:40:17.923Z,1.22
2022-11-14T11:43:36.640Z,1.12
2022-11-14T11:45:47.024Z,1.07
2022-11-14T11:48:18.721Z,0.88
2022-11-14T11:50:48.175Z,0.85
2022-11-14T11:53:22.685Z,0.90
2022-11-14T11:55:54.966Z,0.85
2022-11-14T11:58:26.929Z,1.00
2022-11-14T12:00:54.766Z,0.83
2022-11-14T12:03:24.947Z,1.11
2022-11-14T12:06:04.704Z,1.13
2022-11-14T12:08:46.218Z,1.30
2022-11-14T12:11:20.005Z,1.09
2022-11-14T12:14:16.706Z,1.11
2022-11-14T12:17:10.526Z,0.67
2022-11-14T12:19:55.468Z,0.86
2022-11-14T12:22:53.126Z,0.70
2022-11-14T12:25:48.505Z,0.92
2022-11-14T12:28:30.468Z,0.86
2022-11-14T12:31:03.412Z,0.90
2022-11-14T12:33:35.905Z,0.87
2022-11-14T12:36:08.765Z,0.79
2022-11-14T12:38:45.428Z,0.78
2022-11-14T12:41:24.729Z,0.80
2022-11-14T12:43:52.509Z,0.95
2022-11-14T12:46:20.086Z,0.73
2022-11-14T12:48:47.657Z,0.87
2022-11-14T12:51:54.187Z,0.80
2022-11-14T12:54:44.111Z,0.77
2022-11-14T12:57:24.210Z,0.86
2022-11-14T13:00:02.550Z,1.33
2022-11-14T13:03:03.791Z,0.92
2022-11-14T13:05:54.746Z,0.77
2022-11-14T13:09:08.087Z,1.03
2022-11-14T13:11:44.706Z,0.99
2022-11-14T13:14:12.046Z,0.90
2022-11-14T13:16:39.166Z,1.02
2022-11-14T13:19:20.246Z,1.31
2022-11-14T13:22:24.146Z,0.95
2022-11-14T13:25:18.967Z,1.29
2022-11-14T13:31:07.788Z,1.23
2022-11-14T13:33:42.567Z,2.29
2022-11-14T13:36:18.345Z,1.84
2022-11-14T13:39:11.967Z,1.78
2022-11-14T13:42:03.531Z,1.58
2022-11-14T13:45:03.238Z,1.66
2022-11-14T13:48:11.132Z,1.58
2022-11-14T13:50:40.866Z,1.64
2022-11-14T13:53:15.686Z,1.94
2022-11-14T13:56:05.371Z,1.92
2022-11-14T13:58:56.347Z,2.46
2022-11-14T14:01:51.287Z,2.20
2022-11-14T14:04:40.350Z,2.49
2022-11-14T14:07:17.581Z,1.86
2022-11-14T14:09:57.856Z,1.96
2022-11-14T14:12:43.343Z,1.78
2022-11-14T14:15:21.238Z,2.04
2022-11-14T14:18:03.446Z,1.81
2022-11-14T14:20:40.807Z,1.96
2022-11-14T14:23:24.347Z,2.25
2022-11-14T14:26:04.748Z,1.82
2022-11-14T14:28:50.146Z,1.44
2022-11-14T14:31:19.167Z,2.21
2022-11-14T14:33:49.527Z,2.43
2022-11-14T14:36:24.947Z,2.28
2022-11-14T14:39:15.287Z,1.74
2022-11-14T14:41:43.109Z,2.35
2022-11-14T14:44:21.906Z,2.85
2022-11-14T14:46:49.190Z,1.87
2022-11-14T14:49:24.209Z,1.69
2022-11-14T14:51:54.501Z,2.17
2022-11-14T14:54:27.947Z,2.69
2022-11-14T14:56:57.452Z,1.68
2022-11-14T14:59:26.338Z,1.75
2022-11-14T15:01:54.658Z,1.84
2022-11-14T15:04:26.650Z,1.62
2022-11-14T15:06:55.229Z,1.85
2022-11-14T15:09:24.966Z,1.71
2022-11-14T15:11:55.789Z,2.16
2022-11-14T15:14:27.427Z,1.73
2022-11-14T15:16:56.449Z,1.62
2022-11-14T15:19:31.587Z,1.77
2022-11-14T15:22:04.060Z,1.94
2022-11-14T15:24:31.627Z,2.11
2022-11-14T15:26:58.747Z,2.09
2022-11-14T15:29:27.987Z,2.11
2022-11-14T15:31:59.066Z,2.24
2022-11-14T15:34:31.228Z,2.36
2022-11-14T15:37:19.347Z,2.69
2022-11-14T15:39:47.427Z,2.41
2022-11-14T15:42:15.407Z,2.85
2022-11-14T15:44:43.046Z,2.55
2022-11-14T15:47:12.947Z,2.73
2022-11-14T15:49:57.447Z,2.71
2022-11-14T15:52:30.586Z,2.36
2022-11-14T15:54:57.726Z,2.54
2022-11-14T15:57:24.769Z,2.15
2022-11-14T15:59:51.809Z,2.06
2022-11-14T16:02:23.032Z,2.12
2022-11-14T16:04:54.527Z,2.32
2022-11-14T16:07:22.744Z,2.33
2022-11-14T16:09:50.479Z,2.21
2022-11-14T16:12:17.870Z,2.36
2022-11-14T16:14:45.050Z,2.10
2022-11-14T16:17:14.811Z,2.26
2022-11-14T16:19:42.348Z,2.11
2022-11-14T16:22:15.006Z,2.33
2022-11-14T16:24:42.067Z,2.21
2022-11-14T16:27:09.267Z,2.18
2022-11-14T16:29:36.386Z,2.25
2022-11-14T16:32:03.467Z,2.14
2022-11-14T16:34:30.527Z,2.22
2022-11-14T16:36:59.971Z,2.26
2022-11-14T16:39:29.508Z,2.35
2022-11-14T16:42:01.569Z,2.47
2022-11-14T16:44:28.786Z,2.52
2022-11-14T16:46:55.926Z,2.52
2022-11-14T16:49:23.706Z,2.45
2022-11-14T16:51:51.890Z,2.17
2022-11-14T16:54:20.429Z,2.29
2022-11-14T16:56:49.108Z,2.20
2022-11-14T16:59:16.207Z,2.50
2022-11-14T17:01:43.584Z,2.07
2022-11-14T17:04:10.727Z,2.20
2022-11-14T17:06:37.828Z,2.06
2022-11-14T17:09:04.868Z,2.22
2022-11-14T17:11:31.885Z,2.08
2022-11-14T17:14:00.406Z,1.38
2022-11-14T17:16:27.488Z,1.66
2022-11-14T17:18:55.945Z,1.91
2022-11-14T17:21:24.367Z,2.21
2022-11-14T17:23:55.647Z,2.02
2022-11-14T17:26:22.806Z,1.83
2022-11-14T17:28:50.471Z,2.07
2022-11-14T17:31:19.587Z,2.18
2022-11-14T17:33:51.631Z,2.22
2022-11-14T17:36:18.769Z,2.08
2022-11-14T17:38:45.908Z,2.17
2022-11-14T17:41:13.089Z,2.10
2022-11-14T17:43:40.824Z,2.35
2022-11-14T17:46:15.635Z,2.26
2022-11-14T17:48:45.171Z,2.30
2022-11-14T17:51:14.469Z,2.06
2022-11-14T17:53:42.851Z,2.04
2022-11-14T17:56:14.327Z,2.11
2022-11-14T17:58:42.554Z,1.90
2022-11-14T18:01:11.002Z,2.20
2022-11-14T18:03:38.127Z,2.15
2022-11-14T18:06:08.390Z,2.23
2022-11-14T18:08:36.509Z,2.30
2022-11-14T18:11:05.409Z,2.19
2022-11-14T18:13:32.808Z,2.28
2022-11-14T18:16:03.344Z,2.43
2022-11-14T18:18:31.899Z,2.48
2022-11-14T18:20:59.587Z,2.26
2022-11-14T18:23:28.089Z,2.22
2022-11-14T18:25:55.167Z,1.74
2022-11-14T18:28:22.227Z,1.90
2022-11-14T18:30:55.912Z,1.82
2022-11-14T18:33:23.306Z,2.11
2022-11-14T18:35:57.348Z,2.36
2022-11-14T18:38:24.532Z,2.18
2022-11-14T18:40:57.174Z,2.09
2022-11-14T18:43:24.727Z,2.17
2022-11-14T18:45:51.809Z,3.39
2022-11-14T18:48:18.927Z,3.50
2022-11-14T18:50:45.967Z,2.42
2022-11-14T18:53:13.028Z,2.87
2022-11-14T18:55:41.150Z,2.26
2022-11-14T18:58:09.689Z,2.38
2022-11-14T19:00:36.788Z,2.02
2022-11-14T19:03:06.464Z,2.24
2022-11-14T19:05:35.726Z,2.54
2022-11-14T19:08:02.848Z,2.14
2022-11-14T19:10:29.871Z,2.34
2022-11-14T19:12:57.228Z,2.46
2022-11-14T19:15:25.827Z,2.58
2022-11-14T19:17:52.866Z,1.85
2022-11-14T19:20:20.006Z,1.45
2022-11-14T19:22:47.007Z,2.35
2022-11-14T19:25:14.248Z,2.65
2022-11-14T19:27:41.309Z,2.30
2022-11-14T19:30:09.807Z,2.95
2022-11-14T19:32:38.427Z,2.70
2022-11-14T19:35:06.027Z,3.76
2022-11-14T19:37:33.128Z,2.67
2022-11-14T19:40:00.223Z,2.61
2022-11-14T19:42:27.207Z,3.03
2022-11-14T19:44:54.249Z,2.47
2022-11-14T19:47:21.387Z,2.74
2022-11-14T19:49:49.867Z,3.21
2022-11-14T19:52:18.046Z,3.02
2022-11-14T19:54:45.547Z,2.50
2022-11-14T19:57:12.587Z,2.50
2022-11-14T19:59:39.589Z,2.62
2022-11-14T20:02:08.571Z,2.43
2022-11-14T20:04:38.076Z,2.33
2022-11-14T20:07:06.869Z,2.59
2022-11-14T20:09:33.947Z,2.41
2022-11-14T20:12:02.109Z,2.47
2022-11-14T20:14:29.150Z,2.44
2022-11-14T20:16:56.307Z,2.91
2022-11-14T20:19:23.427Z,2.38
2022-11-14T20:21:50.465Z,2.91
2022-11-14T20:24:19.008Z,3.27
2022-11-14T20:26:46.105Z,3.03
2022-11-14T20:29:13.286Z,2.84
2022-11-14T20:31:40.307Z,2.09
2022-11-14T20:34:07.365Z,2.58
2022-11-14T20:36:56.647Z,2.73
2022-11-14T20:39:23.251Z,2.57
2022-11-14T20:41:50.386Z,2.62
2022-11-14T20:44:17.338Z,3.52
2022-11-14T20:46:44.627Z,5.58
2022-11-14T20:49:11.649Z,5.12
2022-11-14T20:51:38.687Z,2.74
2022-11-14T20:54:05.826Z,3.54
2022-11-14T20:56:34.307Z,4.02
2022-11-14T20:59:01.387Z,2.68
2022-11-14T21:01:28.611Z,1.44
2022-11-14T21:03:55.687Z,1.66
2022-11-14T21:06:22.767Z,1.69
2022-11-14T21:08:49.807Z,1.89
2022-11-14T21:11:17.368Z,2.51
2022-11-14T21:13:45.986Z,3.12
2022-11-14T21:16:15.467Z,2.98
2022-11-14T21:18:47.699Z,2.41
2022-11-14T21:21:17.868Z,2.36
2022-11-14T21:23:46.687Z,2.58
2022-11-14T21:26:16.328Z,3.08
2022-11-14T21:28:46.750Z,3.37
2022-11-14T21:31:19.386Z,2.87
2022-11-14T21:33:47.447Z,3.79
2022-11-14T21:39:04.726Z,4.29
2022-11-14T21:41:32.452Z,3.98
2022-11-14T21:44:02.700Z,3.26
2022-11-14T21:46:30.066Z,2.43
2022-11-14T21:48:57.648Z,3.10
2022-11-14T21:51:26.554Z,3.64
2022-11-14T21:53:56.167Z,4.72
2022-11-14T21:56:25.707Z,4.05
2022-11-14T21:58:52.807Z,2.84
2022-11-14T22:01:22.481Z,3.07
2022-11-14T22:03:49.734Z,3.52
2022-11-14T22:06:16.807Z,3.29
2022-11-14T22:08:44.248Z,3.19
2022-11-14T22:11:11.387Z,3.00
2022-11-14T22:13:38.549Z,5.96
2022-11-14T22:16:07.736Z,4.37
2022-11-14T22:18:36.266Z,3.28
2022-11-14T22:21:03.967Z,5.93
2022-11-14T22:23:31.331Z,7.98
2022-11-14T22:26:00.466Z,4.33
2022-11-14T22:28:28.848Z,3.32
2022-11-14T22:31:04.628Z,4.92
2022-11-14T22:33:32.824Z,3.28
2022-11-14T22:36:11.487Z,2.93
2022-11-14T22:38:39.226Z,2.88
2022-11-14T22:41:07.847Z,3.08
2022-11-14T22:43:35.545Z,2.84
2022-11-14T22:46:02.926Z,2.91
2022-11-14T22:48:33.165Z,2.93
2022-11-14T22:51:02.366Z,2.82
2022-11-14T22:53:32.693Z,2.94
2022-11-14T22:56:01.266Z,3.01
2022-11-14T22:58:31.605Z,3.13
2022-11-14T23:00:58.948Z,3.32
2022-11-14T23:03:26.642Z,3.24
2022-11-14T23:05:53.725Z,3.29
2022-11-14T23:08:21.466Z,3.25
2022-11-14T23:10:49.986Z,3.24
2022-11-14T23:13:17.027Z,2.94
2022-11-14T23:15:48.031Z,2.96
2022-11-14T23:18:15.386Z,3.17
2022-11-14T23:20:42.448Z,3.17
2022-11-14T23:23:09.526Z,3.08
2022-11-14T23:25:37.066Z,3.13
2022-11-14T23:28:05.645Z,3.09
2022-11-14T23:30:34.806Z,2.98
2022-11-14T23:33:01.846Z,2.73
2022-11-14T23:35:28.966Z,3.19
2022-11-14T23:37:56.026Z,3.18
2022-11-14T23:40:23.127Z,3.22
2022-11-14T23:42:50.108Z,3.09
2022-11-14T23:45:18.646Z,2.97
2022-11-14T23:47:45.708Z,2.67
2022-11-14T23:50:12.787Z,2.79
2022-11-14T23:52:39.887Z,2.77
2022-11-14T23:55:07.427Z,2.90
2022-11-14T23:57:34.426Z,2.82
